createdAt,value
2023-05-25T00:01:44.110Z,51163.94
2023-05-25T00:04:11.752Z,51193.75
2023-05-25T00:06:41.209Z,51175.88
2023-05-25T00:09:08.425Z,51173.88
2023-05-25T00:11:35.534Z,51195.75
2023-05-25T00:14:02.719Z,51197.72
2023-05-25T00:16:29.896Z,51207.66
2023-05-25T00:18:57.684Z,51187.78
2023-05-25T00:21:25.902Z,51195.75
2023-05-25T00:23:53.000Z,51169.91
2023-05-25T00:26:20.079Z,51165.91
2023-05-25T00:28:47.193Z,51191.78
2023-05-25T00:31:14.343Z,51161.94
2023-05-25T00:33:41.584Z,51157.97
2023-05-25T00:36:09.154Z,51201.72
2023-05-25T00:38:36.845Z,51195.75
2023-05-25T00:41:06.235Z,51183.81
2023-05-25T00:43:33.493Z,51229.53
2023-05-25T00:46:01.489Z,51195.75
2023-05-25T00:48:29.226Z,51205.69
2023-05-25T00:50:59.812Z,51177.84
2023-05-25T00:53:27.133Z,51163.94
2023-05-25T00:56:09.646Z,51217.59
2023-05-25T00:58:41.529Z,51157.97
2023-05-25T01:01:13.393Z,51152.00
2023-05-25T01:03:45.613Z,51173.88
2023-05-25T01:06:16.963Z,51173.88
2023-05-25T01:08:51.114Z,51169.91
2023-05-25T01:11:32.237Z,51195.75
2023-05-25T01:13:59.882Z,51179.84
2023-05-25T01:16:27.438Z,51159.97
2023-05-25T01:18:54.862Z,51167.91
2023-05-25T01:21:48.127Z,51179.84
2023-05-25T01:24:33.558Z,51165.91
2023-05-25T01:27:17.219Z,51179.84
2023-05-25T01:29:46.913Z,51154.00
2023-05-25T01:32:14.895Z,51187.78
2023-05-25T01:34:43.658Z,51154.00
2023-05-25T01:37:13.535Z,51175.88
2023-05-25T01:39:41.405Z,51177.84
2023-05-25T01:42:08.861Z,51191.78
2023-05-25T01:44:37.750Z,51183.81
2023-05-25T01:47:40.308Z,51167.91
2023-05-25T01:50:22.690Z,51150.03
2023-05-25T01:53:03.559Z,51173.88
2023-05-25T01:55:38.179Z,51187.78
2023-05-25T01:58:06.831Z,51173.88
2023-05-25T02:00:35.889Z,51175.88
2023-05-25T02:03:03.802Z,51159.97
2023-05-25T02:05:31.329Z,51148.03
2023-05-25T02:07:58.464Z,51157.97
2023-05-25T02:10:25.595Z,51163.94
2023-05-25T02:12:52.747Z,51165.91
2023-05-25T02:15:19.920Z,51183.81
2023-05-25T02:17:48.368Z,51169.91
2023-05-25T02:20:15.813Z,51177.84
2023-05-25T02:22:42.987Z,51169.91
2023-05-25T02:25:11.677Z,51175.88
2023-05-25T02:27:38.897Z,51163.94
2023-05-25T02:30:07.991Z,51169.91
2023-05-25T02:32:35.939Z,51175.88
2023-05-25T02:35:03.602Z,51157.97
2023-05-25T02:37:30.860Z,51159.97
2023-05-25T02:39:57.965Z,51157.97
2023-05-25T02:42:25.687Z,51173.88
2023-05-25T02:44:52.896Z,51142.06
2023-05-25T02:47:20.183Z,51173.88
2023-05-25T02:49:47.858Z,51189.78
2023-05-25T02:52:15.028Z,51175.88
2023-05-25T02:54:42.690Z,51155.97
2023-05-25T02:57:13.721Z,51144.06
2023-05-25T02:59:41.019Z,51157.97
2023-05-25T03:02:08.896Z,51179.84
2023-05-25T03:04:38.896Z,51142.06
2023-05-25T03:07:06.073Z,51165.91
2023-05-25T03:09:33.234Z,51161.94
2023-05-25T03:12:02.982Z,51157.97
2023-05-25T03:14:30.118Z,51157.97
2023-05-25T03:17:04.355Z,51165.91
2023-05-25T03:19:32.359Z,51189.78
2023-05-25T03:22:00.305Z,51189.78
2023-05-25T03:24:28.855Z,51144.06
2023-05-25T03:26:59.726Z,51171.88
2023-05-25T03:29:27.141Z,51169.91
2023-05-25T03:31:54.406Z,51177.84
2023-05-25T03:34:29.287Z,51163.94
2023-05-25T03:36:56.631Z,51159.97
2023-05-25T03:39:23.914Z,51169.91
2023-05-25T03:41:52.909Z,51175.88
2023-05-25T03:44:20.145Z,51138.09
2023-05-25T03:46:47.320Z,51183.81
2023-05-25T03:49:14.505Z,51165.91
2023-05-25T03:51:42.931Z,51189.78
2023-05-25T03:54:10.551Z,51173.88
2023-05-25T03:56:37.684Z,51189.78
2023-05-25T03:59:06.016Z,51173.88
2023-05-25T04:01:33.165Z,51189.78
2023-05-25T04:04:00.483Z,51159.97
2023-05-25T04:06:30.166Z,51142.06
2023-05-25T04:08:58.193Z,51161.94
2023-05-25T04:11:27.612Z,51173.88
2023-05-25T04:13:58.165Z,51163.94
2023-05-25T04:16:28.672Z,51197.72
2023-05-25T04:18:56.378Z,51167.91
2023-05-25T04:21:24.041Z,51169.91
2023-05-25T04:23:51.384Z,51177.84
2023-05-25T04:26:19.572Z,51163.94
2023-05-25T04:28:49.269Z,51146.03
2023-05-25T04:31:40.309Z,51191.78
2023-05-25T04:34:27.782Z,51169.91
2023-05-25T04:37:09.189Z,51197.72
2023-05-25T04:39:37.518Z,51187.78
2023-05-25T04:42:06.178Z,51187.78
2023-05-25T04:44:34.609Z,51197.72
2023-05-25T04:47:03.131Z,51205.69
2023-05-25T04:49:34.529Z,51189.78
2023-05-25T04:52:01.740Z,51213.63
2023-05-25T04:54:31.325Z,51197.72
2023-05-25T04:57:02.668Z,51189.78
2023-05-25T04:59:31.620Z,51207.66
2023-05-25T05:01:59.033Z,51197.72
2023-05-25T05:04:27.296Z,51213.63
2023-05-25T05:06:57.385Z,51213.63
2023-05-25T05:09:26.590Z,51201.72
2023-05-25T05:11:57.064Z,51187.78
2023-05-25T05:14:24.656Z,51195.75
2023-05-25T05:16:53.262Z,51227.56
2023-05-25T05:19:21.467Z,51221.59
2023-05-25T05:21:48.769Z,51213.63
2023-05-25T05:24:17.582Z,51229.53
2023-05-25T05:26:57.356Z,51225.56
2023-05-25T05:29:46.893Z,51245.44
2023-05-25T05:32:14.106Z,51215.63
2023-05-25T05:34:41.288Z,51211.66
2023-05-25T05:37:18.084Z,51231.53
2023-05-25T05:39:46.231Z,51227.56
2023-05-25T05:42:15.136Z,51243.47
2023-05-25T05:44:42.336Z,51233.50
2023-05-25T05:47:09.584Z,51221.59
2023-05-25T05:49:39.361Z,51237.50
2023-05-25T05:52:09.518Z,51245.44
2023-05-25T05:54:37.281Z,51231.53
2023-05-25T05:57:09.845Z,51237.50
2023-05-25T05:59:37.463Z,51235.50
2023-05-25T06:02:07.473Z,51253.41
2023-05-25T06:04:34.724Z,51265.31
2023-05-25T06:07:01.845Z,51247.44
2023-05-25T06:09:29.147Z,51269.31
2023-05-25T06:11:59.710Z,51263.34
2023-05-25T06:14:28.767Z,51265.31
2023-05-25T06:16:59.342Z,51255.38
2023-05-25T06:19:26.739Z,51277.25
2023-05-25T06:21:53.885Z,51291.16
2023-05-25T06:24:21.670Z,51283.22
2023-05-25T06:26:48.971Z,51303.09
2023-05-25T06:29:17.404Z,51317.00
2023-05-25T06:31:45.248Z,51267.31
2023-05-25T06:34:12.768Z,51307.06
2023-05-25T06:36:41.832Z,51293.16
2023-05-25T06:39:10.357Z,51285.19
2023-05-25T06:41:39.331Z,51297.13
2023-05-25T06:44:07.893Z,51301.09
2023-05-25T06:46:42.041Z,51275.25
2023-05-25T06:49:09.845Z,51305.09
2023-05-25T06:51:37.578Z,51321.00
2023-05-25T06:54:04.885Z,51307.06
2023-05-25T06:56:32.018Z,51317.00
2023-05-25T06:58:59.153Z,51321.00
2023-05-25T07:01:26.553Z,51303.09
2023-05-25T07:03:53.729Z,51321.00
2023-05-25T07:06:21.163Z,51322.97
2023-05-25T07:08:51.331Z,51322.97
2023-05-25T07:11:20.824Z,51324.97
2023-05-25T07:13:48.584Z,51326.94
2023-05-25T07:16:15.815Z,51344.84
2023-05-25T07:18:43.034Z,51301.09
2023-05-25T07:21:10.403Z,51279.25
2023-05-25T07:23:38.379Z,51317.00
2023-05-25T07:26:06.216Z,51334.91
2023-05-25T07:28:33.519Z,51348.81
2023-05-25T07:31:01.478Z,51315.03
2023-05-25T07:33:28.619Z,51332.91
2023-05-25T07:35:55.755Z,51344.84
2023-05-25T07:38:22.845Z,51328.94
2023-05-25T07:40:50.106Z,51324.97
2023-05-25T07:43:17.200Z,51322.97
2023-05-25T07:45:44.367Z,51305.09
2023-05-25T07:48:11.735Z,51301.09
2023-05-25T07:50:38.868Z,51328.94
2023-05-25T07:53:05.946Z,51317.00
2023-05-25T07:55:33.686Z,51342.84
2023-05-25T07:58:00.916Z,51342.84
2023-05-25T08:00:28.236Z,51321.00
2023-05-25T08:02:56.264Z,51346.84
2023-05-25T08:05:23.609Z,51352.78
2023-05-25T08:07:50.828Z,51336.91
2023-05-25T08:10:18.059Z,51362.75
2023-05-25T08:12:49.574Z,51328.94
2023-05-25T08:15:17.934Z,51328.94
2023-05-25T08:17:45.260Z,51344.84
2023-05-25T08:20:12.957Z,51330.94
2023-05-25T08:22:40.735Z,51340.88
2023-05-25T08:25:08.429Z,51382.63
2023-05-25T08:27:38.765Z,51328.94
2023-05-25T08:30:10.086Z,51356.78
2023-05-25T08:32:37.321Z,51358.75
2023-05-25T08:35:05.153Z,51362.75
2023-05-25T08:37:33.365Z,51366.72
2023-05-25T08:40:02.667Z,51376.66
2023-05-25T08:42:30.216Z,51376.66
2023-05-25T08:44:58.895Z,51366.72
2023-05-25T08:47:33.856Z,51370.69
2023-05-25T08:50:04.746Z,51392.56
2023-05-25T08:52:34.362Z,51350.81
2023-05-25T08:55:05.893Z,51344.84
2023-05-25T08:57:46.958Z,51386.59
2023-05-25T09:00:16.403Z,51396.53
2023-05-25T09:03:18.109Z,51382.63
2023-05-25T09:05:46.521Z,51388.59
2023-05-25T09:08:14.886Z,51398.53
2023-05-25T09:10:43.028Z,51376.66
2023-05-25T09:13:21.302Z,51390.56
2023-05-25T09:15:50.975Z,51352.78
2023-05-25T09:18:18.185Z,51356.78
2023-05-25T09:20:47.288Z,51380.63
2023-05-25T09:23:15.628Z,51378.66
2023-05-25T09:25:44.193Z,51388.59
2023-05-25T09:30:42.046Z,51388.59
2023-05-25T09:33:13.379Z,51416.41
2023-05-25T09:35:41.170Z,51380.63
2023-05-25T09:38:08.529Z,51394.53
2023-05-25T09:40:38.279Z,51406.47
2023-05-25T09:43:05.488Z,51388.59
2023-05-25T09:45:32.770Z,51390.56
2023-05-25T09:48:00.407Z,51398.53
2023-05-25T09:50:32.508Z,51380.63
2023-05-25T09:53:01.546Z,51368.69
2023-05-25T09:55:39.963Z,51360.75
2023-05-25T09:58:16.744Z,51364.72
2023-05-25T10:00:46.355Z,51392.56
2023-05-25T10:03:15.846Z,51394.53
2023-05-25T10:05:43.070Z,51378.66
2023-05-25T10:08:11.728Z,51386.59
2023-05-25T10:10:41.211Z,51364.72
2023-05-25T10:13:10.248Z,51404.50
2023-05-25T10:15:41.245Z,51390.56
2023-05-25T10:18:10.260Z,51388.59
2023-05-25T10:20:38.432Z,51372.69
2023-05-25T10:23:13.338Z,51366.72
2023-05-25T10:25:45.261Z,51404.50
2023-05-25T10:28:36.531Z,51400.50
2023-05-25T10:31:05.537Z,51426.34
2023-05-25T10:33:33.999Z,51416.41
2023-05-25T10:36:10.678Z,51424.38
2023-05-25T10:38:40.827Z,51428.34
2023-05-25T10:41:11.212Z,51412.44
2023-05-25T10:43:41.746Z,51390.56
2023-05-25T10:46:09.098Z,51416.41
2023-05-25T10:48:46.240Z,51432.31
2023-05-25T10:51:14.272Z,51408.47
2023-05-25T10:53:46.272Z,51422.38
2023-05-25T10:56:14.354Z,51418.41
2023-05-25T10:58:44.190Z,51444.25
2023-05-25T11:01:14.430Z,51410.44
2023-05-25T11:03:45.070Z,51420.41
2023-05-25T11:06:21.758Z,51430.34
2023-05-25T11:08:59.432Z,51446.25
2023-05-25T11:11:47.621Z,51396.53
2023-05-25T11:14:30.328Z,51424.38
2023-05-25T11:17:19.159Z,51406.47
2023-05-25T11:19:54.573Z,51444.25
2023-05-25T11:22:23.996Z,51414.44
2023-05-25T11:24:53.189Z,51396.53
2023-05-25T11:27:25.085Z,51392.56
2023-05-25T11:29:53.453Z,51422.38
2023-05-25T11:32:21.457Z,51392.56
2023-05-25T11:34:53.008Z,51432.31
2023-05-25T11:37:24.822Z,51420.41
2023-05-25T11:39:53.504Z,51464.13
2023-05-25T11:42:23.920Z,51474.06
2023-05-25T11:44:51.961Z,51486.00
2023-05-25T11:47:23.661Z,51519.81
2023-05-25T11:49:51.118Z,51531.72
2023-05-25T11:52:20.021Z,51561.56
2023-05-25T11:54:47.820Z,51633.13
2023-05-25T11:57:22.604Z,51645.06
2023-05-25T11:59:51.262Z,51714.66
2023-05-25T12:02:19.069Z,51786.22
2023-05-25T12:04:57.404Z,51929.38
2023-05-25T12:07:26.386Z,52008.94
2023-05-25T12:10:09.598Z,52154.09
2023-05-25T12:12:46.152Z,52287.31
2023-05-25T12:15:24.567Z,52386.75
2023-05-25T12:17:53.788Z,52261.47
2023-05-25T12:20:21.636Z,52402.66
2023-05-25T12:22:49.116Z,52442.44
2023-05-25T12:25:21.670Z,52633.34
2023-05-25T12:27:48.813Z,52418.56
2023-05-25T12:30:16.262Z,52394.72
2023-05-25T12:32:54.659Z,52589.59
2023-05-25T12:35:22.611Z,52786.50
2023-05-25T12:37:49.989Z,52752.69
2023-05-25T12:40:21.554Z,52450.38
2023-05-25T12:42:57.353Z,52778.53
2023-05-25T12:45:24.946Z,52961.66
2023-05-25T12:47:52.557Z,52963.50
2023-05-25T12:50:19.897Z,52963.50
2023-05-25T12:52:48.782Z,52715.03
2023-05-25T12:55:34.343Z,53126.63
2023-05-25T12:58:04.792Z,53562.25
2023-05-25T13:00:41.057Z,53498.72
2023-05-25T13:03:08.688Z,52866.06
2023-05-25T13:05:37.798Z,52792.47
2023-05-25T13:08:08.927Z,52715.03
2023-05-25T13:10:38.261Z,53045.06
2023-05-25T13:13:05.629Z,53291.72
2023-05-25T13:15:33.326Z,52715.03
2023-05-25T13:18:00.714Z,53156.47
2023-05-25T13:20:32.596Z,53156.47
2023-05-25T13:23:00.201Z,53021.19
2023-05-25T13:25:28.271Z,53307.63
2023-05-25T13:27:58.208Z,52715.03
2023-05-25T13:30:26.638Z,52715.03
2023-05-25T13:32:54.318Z,52760.66
2023-05-25T13:35:38.224Z,52822.31
2023-05-25T13:38:05.846Z,52715.03
2023-05-25T13:40:33.047Z,52881.97
2023-05-25T13:43:00.272Z,52832.25
2023-05-25T13:45:27.673Z,52715.03
2023-05-25T13:47:55.094Z,52854.13
2023-05-25T13:50:22.405Z,52691.03
2023-05-25T13:52:49.735Z,52715.03
2023-05-25T13:55:16.977Z,52802.53
2023-05-25T13:57:44.394Z,52979.44
2023-05-25T14:00:12.496Z,52808.38
2023-05-25T14:02:39.877Z,52808.38
2023-05-25T14:05:07.588Z,52808.38
2023-05-25T14:07:34.659Z,52794.56
2023-05-25T14:10:01.755Z,52840.19
2023-05-25T14:12:28.937Z,52715.03
2023-05-25T14:14:56.128Z,52715.03
2023-05-25T14:17:24.807Z,52864.06
2023-05-25T14:19:51.984Z,52715.03
2023-05-25T14:22:19.529Z,52748.72
2023-05-25T14:24:46.694Z,52715.03
2023-05-25T14:27:16.118Z,52850.16
2023-05-25T14:29:43.279Z,52850.16
2023-05-25T14:32:10.656Z,52850.16
2023-05-25T14:34:37.752Z,52700.97
2023-05-25T14:37:05.043Z,52583.63
2023-05-25T14:39:32.216Z,52673.13
2023-05-25T14:41:59.409Z,52695.00
2023-05-25T14:44:26.547Z,52573.69
2023-05-25T14:46:53.817Z,52541.88
2023-05-25T14:49:25.121Z,52637.34
2023-05-25T14:51:52.304Z,52689.03
2023-05-25T14:54:19.810Z,52577.66
2023-05-25T14:56:48.076Z,52418.56
2023-05-25T14:59:15.428Z,52581.66
2023-05-25T15:01:43.427Z,52466.31
2023-05-25T15:04:10.843Z,52681.09
2023-05-25T15:06:39.446Z,52770.59
2023-05-25T15:09:07.229Z,52531.94
2023-05-25T15:11:34.564Z,52500.09
2023-05-25T15:14:02.035Z,52553.81
2023-05-25T15:16:29.439Z,52677.13
2023-05-25T15:18:56.687Z,52504.09
2023-05-25T15:21:24.037Z,52527.94
2023-05-25T15:23:51.513Z,52591.59
2023-05-25T15:26:18.752Z,52502.09
2023-05-25T15:28:45.885Z,52716.88
2023-05-25T15:31:14.292Z,52569.72
2023-05-25T15:33:50.032Z,52474.25
2023-05-25T15:36:23.608Z,52486.19
2023-05-25T15:38:50.749Z,52482.22
2023-05-25T15:41:21.010Z,52669.16
2023-05-25T15:44:03.093Z,52645.28
2023-05-25T15:46:30.396Z,52715.03
2023-05-25T15:48:57.495Z,52677.13
2023-05-25T15:51:24.709Z,52738.75
2023-05-25T15:53:52.373Z,52739.00
2023-05-25T15:56:19.585Z,52587.63
2023-05-25T15:58:48.965Z,52613.47
2023-05-25T16:01:16.434Z,52669.16
2023-05-25T16:03:44.863Z,52683.06
2023-05-25T16:06:12.229Z,52637.34
2023-05-25T16:08:39.422Z,52380.78
2023-05-25T16:11:06.674Z,52297.25
2023-05-25T16:13:33.968Z,52281.34
2023-05-25T16:16:01.169Z,52346.97
2023-05-25T16:18:28.363Z,52346.97
2023-05-25T16:20:58.284Z,52283.34
2023-05-25T16:23:25.553Z,52279.38
2023-05-25T16:25:52.813Z,52356.91
2023-05-25T16:28:20.370Z,52269.41
2023-05-25T16:30:47.643Z,52404.66
2023-05-25T16:33:14.978Z,52402.66
2023-05-25T16:35:43.550Z,52321.13
2023-05-25T16:38:10.931Z,52193.84
2023-05-25T16:40:38.087Z,52219.72
2023-05-25T16:43:05.414Z,52170.00
2023-05-25T16:45:32.639Z,52215.72
2023-05-25T16:48:03.048Z,52164.03
2023-05-25T16:50:32.713Z,52225.66
2023-05-25T16:53:00.034Z,52203.78
2023-05-25T16:55:27.190Z,52122.28
2023-05-25T16:57:54.466Z,52134.19
2023-05-25T17:00:22.440Z,52148.13
2023-05-25T17:02:50.173Z,52096.41
2023-05-25T17:05:17.788Z,52034.78
2023-05-25T17:07:47.322Z,51975.13
2023-05-25T17:10:14.491Z,52016.88
2023-05-25T17:12:42.128Z,52080.50
2023-05-25T17:15:11.342Z,52012.91
2023-05-25T17:17:38.573Z,52082.50
2023-05-25T17:20:06.714Z,52000.97
2023-05-25T17:22:41.324Z,51957.22
2023-05-25T17:25:09.337Z,51937.34
2023-05-25T17:27:39.372Z,52044.72
2023-05-25T17:30:07.491Z,52010.91
2023-05-25T17:32:34.707Z,52004.94
2023-05-25T17:35:02.242Z,51943.31
2023-05-25T17:37:29.486Z,51865.75
2023-05-25T17:39:56.637Z,51839.91
2023-05-25T17:42:27.485Z,51798.16
2023-05-25T17:44:54.627Z,51762.38
2023-05-25T17:47:22.600Z,51826.00
2023-05-25T17:49:50.138Z,51774.28
2023-05-25T17:52:17.416Z,51742.47
2023-05-25T17:54:44.607Z,51746.47
2023-05-25T17:57:11.763Z,51738.50
2023-05-25T17:59:39.046Z,51724.59
2023-05-25T18:02:06.565Z,51704.69
2023-05-25T18:04:33.814Z,51704.69
2023-05-25T18:07:03.434Z,51684.81
2023-05-25T18:09:30.613Z,51639.09
2023-05-25T18:11:58.097Z,51619.22
2023-05-25T18:14:25.793Z,51587.41
2023-05-25T18:16:55.316Z,51553.59
2023-05-25T18:19:22.624Z,51517.81
2023-05-25T18:21:53.968Z,51497.94
2023-05-25T18:24:24.095Z,51488.00
2023-05-25T18:26:52.284Z,51489.97
2023-05-25T18:29:19.942Z,51456.19
2023-05-25T18:31:48.766Z,51448.22
2023-05-25T18:34:19.561Z,51460.16
2023-05-25T18:36:46.779Z,51458.16
2023-05-25T18:39:13.968Z,51452.19
2023-05-25T18:41:42.728Z,51436.28
2023-05-25T18:44:09.992Z,51420.41
2023-05-25T18:46:39.799Z,51416.41
2023-05-25T18:49:07.046Z,51402.50
2023-05-25T18:51:34.217Z,51416.41
2023-05-25T18:54:01.398Z,51392.56
2023-05-25T18:56:28.541Z,51390.56
2023-05-25T18:58:57.132Z,51396.53
2023-05-25T19:01:25.597Z,51384.59
2023-05-25T19:03:58.153Z,51374.66
2023-05-25T19:06:27.193Z,51398.53
2023-05-25T19:08:55.459Z,51360.75
2023-05-25T19:11:22.982Z,51346.84
2023-05-25T19:13:50.341Z,51380.63
2023-05-25T19:16:17.842Z,51380.63
2023-05-25T19:18:45.383Z,51374.66
2023-05-25T19:21:12.646Z,51378.66
2023-05-25T19:23:41.651Z,51332.91
2023-05-25T19:26:08.985Z,51364.72
2023-05-25T19:28:36.209Z,51362.75
2023-05-25T19:31:03.534Z,51356.78
2023-05-25T19:33:30.729Z,51332.91
2023-05-25T19:35:58.047Z,51336.91
2023-05-25T19:38:28.863Z,51352.78
2023-05-25T19:41:01.617Z,51348.81
2023-05-25T19:43:29.008Z,51336.91
2023-05-25T19:45:56.357Z,51344.84
2023-05-25T19:48:25.950Z,51319.00
2023-05-25T19:50:54.600Z,51336.91
2023-05-25T19:53:21.926Z,51326.94
2023-05-25T19:55:49.330Z,51346.84
2023-05-25T19:58:16.668Z,51348.81
2023-05-25T20:00:43.785Z,51338.88
2023-05-25T20:03:11.137Z,51352.78
2023-05-25T20:05:41.284Z,51321.00
2023-05-25T20:08:08.757Z,51336.91
2023-05-25T20:10:39.565Z,51336.91
2023-05-25T20:13:08.647Z,51336.91
2023-05-25T20:15:36.117Z,51307.06
2023-05-25T20:18:03.584Z,51301.09
2023-05-25T20:20:31.374Z,51313.03
2023-05-25T20:22:58.822Z,51321.00
2023-05-25T20:25:26.222Z,51319.00
2023-05-25T20:27:53.389Z,51324.97
2023-05-25T20:30:20.906Z,51332.91
2023-05-25T20:32:48.241Z,51307.06
2023-05-25T20:35:18.394Z,51336.91
2023-05-25T20:37:46.061Z,51362.75
2023-05-25T20:40:13.471Z,51330.94
2023-05-25T20:42:40.831Z,51313.03
2023-05-25T20:45:08.681Z,51317.00
2023-05-25T20:47:35.969Z,51307.06
2023-05-25T20:50:03.120Z,51305.09
2023-05-25T20:52:30.453Z,51277.25
2023-05-25T20:54:57.629Z,51297.13
2023-05-25T20:57:24.852Z,51311.06
2023-05-25T20:59:54.114Z,51311.06
2023-05-25T21:02:21.422Z,51324.97
2023-05-25T21:04:48.545Z,51307.06
2023-05-25T21:07:15.896Z,51269.31
2023-05-25T21:09:43.139Z,51305.09
2023-05-25T21:12:10.712Z,51301.09
2023-05-25T21:14:38.054Z,51322.97
2023-05-25T21:17:05.196Z,51322.97
2023-05-25T21:19:32.466Z,51313.03
2023-05-25T21:22:00.194Z,51315.03
2023-05-25T21:24:27.307Z,51321.00
2023-05-25T21:26:54.465Z,51299.13
2023-05-25T21:29:21.649Z,51283.22
2023-05-25T21:31:48.918Z,51305.09
2023-05-25T21:34:16.168Z,51263.34
2023-05-25T21:36:43.737Z,51283.22
2023-05-25T21:39:11.102Z,51305.09
2023-05-25T21:41:38.367Z,51293.16
2023-05-25T21:44:05.661Z,51321.00
2023-05-25T21:46:33.260Z,51281.22
2023-05-25T21:49:00.387Z,51303.09
2023-05-25T21:51:30.074Z,51350.81
2023-05-25T21:53:57.236Z,51265.31
2023-05-25T21:56:24.356Z,51273.28
2023-05-25T21:58:51.408Z,51289.19
2023-05-25T22:01:18.532Z,51257.38
2023-05-25T22:03:45.665Z,51261.34
2023-05-25T22:06:12.778Z,51285.19
2023-05-25T22:08:41.233Z,51273.28
2023-05-25T22:11:08.366Z,51307.06
2023-05-25T22:13:35.639Z,51295.16
2023-05-25T22:16:02.759Z,51265.31
2023-05-25T22:18:29.973Z,51293.16
2023-05-25T22:20:57.222Z,51267.31
2023-05-25T22:23:24.470Z,51293.16
2023-05-25T22:25:51.718Z,51297.13
2023-05-25T22:28:18.951Z,51263.34
2023-05-25T22:30:46.126Z,51257.38
2023-05-25T22:33:13.236Z,51263.34
2023-05-25T22:35:40.720Z,51263.34
2023-05-25T22:38:07.880Z,51263.34
2023-05-25T22:40:34.979Z,51291.16
2023-05-25T22:43:02.128Z,51277.25
2023-05-25T22:45:29.267Z,51277.25
2023-05-25T22:47:56.545Z,51273.28
2023-05-25T22:50:23.893Z,51281.22
2023-05-25T22:52:51.110Z,51245.44
2023-05-25T22:55:18.201Z,51247.44
2023-05-25T22:57:45.388Z,51269.31
2023-05-25T23:00:12.932Z,51273.28
2023-05-25T23:02:40.190Z,51253.41
2023-05-25T23:05:09.076Z,51259.34
2023-05-25T23:07:36.398Z,51265.31
2023-05-25T23:10:05.394Z,51261.34
2023-05-25T23:12:33.436Z,51275.25
2023-05-25T23:15:01.346Z,51259.34
2023-05-25T23:17:28.541Z,51261.34
2023-05-25T23:19:55.698Z,51257.38
2023-05-25T23:22:22.857Z,51245.44
2023-05-25T23:24:49.907Z,51269.31
2023-05-25T23:27:17.072Z,51229.53
2023-05-25T23:29:44.228Z,51257.38
2023-05-25T23:32:11.359Z,51237.50
2023-05-25T23:34:38.481Z,51249.41
2023-05-25T23:37:06.527Z,51249.41
2023-05-25T23:39:33.920Z,51257.38
2023-05-25T23:42:02.289Z,51251.41
2023-05-25T23:44:29.528Z,51263.34
2023-05-25T23:46:56.689Z,51263.34
2023-05-25T23:49:23.834Z,51235.50
2023-05-25T23:51:51.180Z,51227.56
2023-05-25T23:54:18.479Z,51241.47
2023-05-25T23:56:45.607Z,51261.34
2023-05-25T23:59:15.193Z,51239.47
